Time;durP1;ratioP1;P1;durP2;ratioP2;P2;SDS_P1;SDS_P2;PMS_P1;PMS_P2;Temp;Humidity;BMP_temperature;BMP_pressure;BME280_temperature;BME280_humidity;BME280_pressure;Samples;Min_cycle;Max_cycle;Signal;HPM_P1;HPM_P2
2022/12/16 00:01:18;;;;;;;48.77;33.50;;;-5.10;1.00;;;;;;6223268;28;20761;-50
2022/12/16 00:04:21;;;;;;;59.70;36.83;;;-5.10;1.00;;;;;;6235336;28;20704;-49
2022/12/16 00:07:24;;;;;;;59.13;34.83;;;-5.00;1.00;;;;;;6224360;28;20413;-50
2022/12/16 00:10:51;;;;;;;57.90;33.73;;;-4.90;1.00;;;;;;6241769;28;20633;-50
2022/12/16 00:13:50;;;;;;;51.97;34.80;;;-5.10;1.00;;;;;;6217360;28;20236;-49
2022/12/16 00:16:55;;;;;;;62.60;35.70;;;-5.10;1.00;;;;;;6240572;28;20397;-49
2022/12/16 00:19:58;;;;;;;53.73;34.07;;;-5.00;1.00;;;;;;6245921;28;20233;-50
2022/12/16 00:23:01;;;;;;;47.83;31.60;;;-4.90;1.00;;;;;;6266201;28;20580;-50
2022/12/16 00:26:04;;;;;;;50.50;32.30;;;-5.00;1.00;;;;;;6266217;28;20237;-50
2022/12/16 00:29:09;;;;;;;47.47;32.27;;;-4.90;1.00;;;;;;6258128;28;20268;-50
2022/12/16 00:32:14;;;;;;;48.47;32.60;;;-5.10;1.00;;;;;;6266542;28;20236;-50
2022/12/16 00:35:17;;;;;;;60.40;34.50;;;-5.10;1.00;;;;;;6266749;28;20719;-50
2022/12/16 00:38:20;;;;;;;53.00;33.63;;;-4.80;1.00;;;;;;6258402;28;20240;-49
2022/12/16 00:41:23;;;;;;;49.90;33.73;;;-5.10;1.00;;;;;;6243861;28;20241;-54
2022/12/16 00:44:26;;;;;;;57.57;35.53;;;-5.10;1.00;;;;;;6241638;28;20715;-48
2022/12/16 00:47:31;;;;;;;63.80;35.03;;;-5.20;1.00;;;;;;6239351;28;20762;-49
2022/12/16 00:50:34;;;;;;;55.87;34.90;;;-5.20;1.00;;;;;;6237633;28;20242;-52
2022/12/16 00:53:38;;;;;;;62.17;36.30;;;-5.20;1.00;;;;;;6240426;28;20280;-50
2022/12/16 00:56:41;;;;;;;58.67;34.07;;;-5.20;1.00;;;;;;6242139;28;20235;-52
2022/12/16 00:59:44;;;;;;;55.40;33.80;;;-5.30;1.00;;;;;;6240664;28;20623;-49
2022/12/16 01:02:49;;;;;;;52.83;32.73;;;-5.30;1.00;;;;;;6233566;28;20586;-49
2022/12/16 01:05:54;;;;;;;57.63;32.93;;;-5.30;1.00;;;;;;6237945;28;20235;-50
2022/12/16 01:08:57;;;;;;;53.27;32.93;;;-5.30;1.00;;;;;;6236234;28;20798;-51
2022/12/16 01:12:00;;;;;;;57.47;34.13;;;-5.00;1.00;;;;;;6230578;28;21743;-49
2022/12/16 01:15:06;;;;;;;49.30;31.47;;;-5.30;1.00;;;;;;6213308;28;20250;-49
2022/12/16 01:18:10;;;;;;;44.70;30.60;;;-5.30;1.00;;;;;;6234915;28;20252;-51
2022/12/16 01:21:15;;;;;;;52.07;33.80;;;-5.20;1.00;;;;;;6228978;28;20254;-50
2022/12/16 01:24:18;;;;;;;54.13;32.00;;;-5.30;1.00;;;;;;6236449;28;20611;-50
2022/12/16 01:27:21;;;;;;;48.33;31.50;;;-5.10;1.00;;;;;;6217493;28;20232;-49
2022/12/16 01:30:24;;;;;;;49.37;31.87;;;-5.30;1.00;;;;;;6212423;28;20242;-49
2022/12/16 01:33:29;;;;;;;56.13;33.40;;;-5.10;1.00;;;;;;6240750;28;20319;-50
2022/12/16 01:36:33;;;;;;;55.20;34.57;;;-5.30;1.00;;;;;;6216712;28;20231;-48
2022/12/16 01:39:36;;;;;;;65.40;35.10;;;-5.40;1.00;;;;;;6237916;28;20380;-50
2022/12/16 01:42:39;;;;;;;56.70;33.93;;;-5.20;1.00;;;;;;6230608;28;20727;-49
2022/12/16 01:45:42;;;;;;;60.17;34.90;;;-5.40;1.00;;;;;;6214114;28;20238;-50
2022/12/16 01:48:51;;;;;;;52.57;32.53;;;-5.40;1.00;;;;;;6236210;28;20235;-49
2022/12/16 01:51:58;;;;;;;49.17;31.23;;;-5.40;1.00;;;;;;6235455;28;20665;-51
2022/12/16 01:55:05;;;;;;;54.87;31.03;;;-5.50;1.00;;;;;;6236650;28;20723;-56
2022/12/16 01:58:13;;;;;;;54.73;33.77;;;-5.30;1.00;;;;;;6236015;28;20247;-51
2022/12/16 02:01:16;;;;;;;51.23;31.67;;;-5.40;1.00;;;;;;6234461;28;20234;-51
2022/12/16 02:04:21;;;;;;;51.90;33.13;;;-5.40;1.00;;;;;;6235451;28;20275;-50
2022/12/16 02:07:24;;;;;;;48.07;31.00;;;-5.40;1.00;;;;;;6227598;28;20241;-49
2022/12/16 02:10:38;;;;;;;51.00;31.53;;;-5.40;1.00;;;;;;6232356;28;20235;-49
2022/12/16 02:14:02;;;;;;;49.90;30.67;;;-5.40;1.00;;;;;;6217847;28;20751;-50
2022/12/16 02:17:11;;;;;;;57.93;35.47;;;-5.30;1.00;;;;;;6212484;28;20609;-49
2022/12/16 02:20:39;;;;;;;55.97;34.40;;;-5.50;1.00;;;;;;6223392;28;20718;-50
2022/12/16 02:24:20;;;;;;;66.90;37.23;;;-5.40;1.00;;;;;;6261241;28;20237;-49
2022/12/16 02:27:58;;;;;;;61.00;33.37;;;-5.40;1.00;;;;;;6249506;28;20716;-50
2022/12/16 02:31:17;;;;;;;53.10;32.83;;;-5.40;1.00;;;;;;6223878;28;20711;-49
2022/12/16 02:34:28;;;;;;;54.73;33.57;;;-5.40;1.00;;;;;;6228327;28;20237;-51
2022/12/16 02:37:37;;;;;;;54.30;31.27;;;-5.50;1.00;;;;;;6220840;28;20254;-49
2022/12/16 02:40:45;;;;;;;52.70;31.23;;;-5.40;1.00;;;;;;6223241;28;20235;-50
2022/12/16 02:43:54;;;;;;;51.47;32.00;;;-5.50;1.00;;;;;;6200092;28;20239;-50
2022/12/16 02:46:58;;;;;;;47.53;28.50;;;-5.50;1.00;;;;;;6211639;28;20246;-49
2022/12/16 02:50:02;;;;;;;49.13;30.73;;;-5.70;1.00;;;;;;6227337;28;20237;-49
2022/12/16 02:53:06;;;;;;;48.67;31.97;;;-5.50;1.00;;;;;;6234628;28;20731;-49
2022/12/16 02:56:20;;;;;;;47.37;30.07;;;-5.50;1.00;;;;;;6231425;28;20234;-49
2022/12/16 02:59:27;;;;;;;50.43;31.43;;;-5.70;1.00;;;;;;6210413;28;20236;-50
2022/12/16 03:02:39;;;;;;;44.63;29.60;;;-5.50;1.00;;;;;;6226007;28;20729;-50
2022/12/16 03:05:47;;;;;;;44.43;29.33;;;-5.40;1.00;;;;;;6233565;28;20309;-50
2022/12/16 03:08:54;;;;;;;46.03;31.27;;;-5.40;1.00;;;;;;6227068;28;20231;-52
2022/12/16 03:11:59;;;;;;;51.80;32.10;;;-5.50;1.00;;;;;;6234218;28;20310;-52
2022/12/16 03:15:03;;;;;;;48.10;29.70;;;-5.50;1.00;;;;;;6234100;28;20230;-49
2022/12/16 03:18:10;;;;;;;47.33;29.87;;;-5.50;1.00;;;;;;6234317;28;20238;-50
2022/12/16 03:21:15;;;;;;;47.97;30.33;;;-5.50;1.00;;;;;;6234874;28;20261;-49
2022/12/16 03:24:18;;;;;;;46.73;28.50;;;-5.70;1.00;;;;;;6209067;28;20611;-50
2022/12/16 03:27:26;;;;;;;44.80;31.07;;;-5.60;1.00;;;;;;6210310;28;20384;-50
2022/12/16 03:30:36;;;;;;;44.53;28.90;;;-5.50;1.00;;;;;;6212196;28;20799;-49
2022/12/16 03:33:48;;;;;;;46.03;28.90;;;-5.80;1.00;;;;;;6234062;28;20238;-50
2022/12/16 03:36:55;;;;;;;46.00;29.50;;;-5.60;1.00;;;;;;6234039;28;20249;-49
2022/12/16 03:40:01;;;;;;;48.10;29.50;;;-5.80;1.00;;;;;;6220590;28;20462;-49
2022/12/16 03:43:05;;;;;;;50.03;29.40;;;-5.50;1.00;;;;;;6234455;28;20253;-50
2022/12/16 03:46:10;;;;;;;56.77;31.33;;;-5.70;1.00;;;;;;6211595;28;20231;-49
2022/12/16 03:49:14;;;;;;;49.43;29.63;;;-5.50;1.00;;;;;;6216341;28;20234;-50
2022/12/16 03:52:17;;;;;;;45.47;29.87;;;-5.60;1.00;;;;;;6231763;28;20246;-49
2022/12/16 03:55:20;;;;;;;48.97;29.77;;;-5.70;1.00;;;;;;6234802;28;20743;-50
2022/12/16 03:58:23;;;;;;;48.70;29.23;;;-5.70;1.00;;;;;;6233871;28;20447;-49
2022/12/16 04:01:26;;;;;;;45.50;28.60;;;-5.60;1.00;;;;;;6233111;28;20234;-49
2022/12/16 04:04:31;;;;;;;46.60;29.93;;;-5.70;1.00;;;;;;6233956;28;20238;-51
2022/12/16 04:07:34;;;;;;;47.17;29.37;;;-5.50;1.00;;;;;;6226369;28;20250;-52
2022/12/16 04:27:26;;;;;;;48.50;29.37;;;-5.40;1.00;;;;;;6233227;28;20334;-49
2022/12/16 04:30:33;;;;;;;45.60;30.47;;;-5.50;1.00;;;;;;6233163;28;20246;-49
